createdAt,value
2023-05-16T00:00:36.545Z,77.96
2023-05-16T00:03:03.388Z,78.03
2023-05-16T00:05:30.158Z,78.20
2023-05-16T00:07:56.764Z,78.08
2023-05-16T00:10:23.351Z,78.16
2023-05-16T00:12:51.644Z,78.06
2023-05-16T00:15:20.397Z,78.43
2023-05-16T00:17:47.390Z,78.28
2023-05-16T00:20:17.490Z,78.47
2023-05-16T00:22:44.488Z,78.58
2023-05-16T00:25:11.138Z,78.47
2023-05-16T00:27:37.801Z,78.67
2023-05-16T00:30:04.740Z,78.70
2023-05-16T00:32:31.412Z,78.47
2023-05-16T00:34:57.908Z,78.75
2023-05-16T00:37:24.484Z,78.84
2023-05-16T00:39:51.158Z,78.82
2023-05-16T00:42:20.862Z,78.97
2023-05-16T00:44:50.586Z,79.12
2023-05-16T00:47:17.093Z,78.95
2023-05-16T00:49:43.709Z,79.21
2023-05-16T00:52:10.627Z,79.20
2023-05-16T00:54:37.188Z,79.32
2023-05-16T00:57:05.168Z,79.42
2023-05-16T00:59:31.700Z,79.45
2023-05-16T01:01:58.659Z,79.64
2023-05-16T01:04:26.901Z,79.75
2023-05-16T01:06:53.677Z,79.80
2023-05-16T01:09:20.844Z,79.75
2023-05-16T01:11:52.173Z,79.68
2023-05-16T01:14:37.625Z,80.10
2023-05-16T01:17:27.939Z,80.17
2023-05-16T01:20:15.498Z,80.25
2023-05-16T01:22:46.124Z,80.26
2023-05-16T01:25:22.665Z,80.42
2023-05-16T01:27:49.233Z,80.47
2023-05-16T01:30:18.027Z,80.34
2023-05-16T01:32:45.091Z,80.70
2023-05-16T01:35:14.491Z,80.43
2023-05-16T01:37:46.910Z,80.64
2023-05-16T01:40:21.493Z,80.87
2023-05-16T01:42:52.729Z,80.60
2023-05-16T01:45:32.950Z,80.78
2023-05-16T01:48:07.378Z,80.88
2023-05-16T01:50:39.181Z,81.03
2023-05-16T01:53:14.657Z,81.14
2023-05-16T01:55:46.773Z,81.33
2023-05-16T01:58:16.115Z,81.51
2023-05-16T02:00:42.974Z,81.72
2023-05-16T02:03:09.691Z,81.60
2023-05-16T02:05:36.373Z,81.72
2023-05-16T02:08:03.324Z,81.98
2023-05-16T02:10:29.892Z,81.72
2023-05-16T02:12:56.337Z,81.74
2023-05-16T02:15:22.863Z,81.66
2023-05-16T02:17:49.681Z,81.85
2023-05-16T02:20:16.455Z,82.14
2023-05-16T02:22:44.620Z,81.88
2023-05-16T02:25:11.934Z,82.08
2023-05-16T02:27:38.407Z,82.07
2023-05-16T02:30:05.707Z,82.06
2023-05-16T02:32:32.978Z,82.17
2023-05-16T02:34:59.872Z,82.05
2023-05-16T02:37:26.471Z,82.23
2023-05-16T02:39:52.964Z,82.17
2023-05-16T02:42:19.749Z,82.39
2023-05-16T02:44:46.575Z,82.27
2023-05-16T02:47:13.119Z,82.39
2023-05-16T02:49:39.635Z,82.52
2023-05-16T02:52:06.536Z,82.55
2023-05-16T02:54:33.012Z,82.59
2023-05-16T02:56:59.519Z,82.75
2023-05-16T02:59:26.594Z,82.61
2023-05-16T03:01:53.444Z,82.59
2023-05-16T03:04:20.466Z,82.59
2023-05-16T03:06:47.057Z,82.60
2023-05-16T03:09:13.711Z,82.65
2023-05-16T03:11:40.240Z,82.71
2023-05-16T03:14:06.785Z,82.86
2023-05-16T03:16:33.409Z,82.76
2023-05-16T03:18:59.985Z,82.86
2023-05-16T03:21:26.646Z,82.88
2023-05-16T03:23:55.111Z,83.15
2023-05-16T03:26:22.772Z,83.06
2023-05-16T03:28:49.253Z,82.97
2023-05-16T03:31:16.200Z,83.12
2023-05-16T03:33:42.926Z,83.30
2023-05-16T03:36:10.561Z,83.33
2023-05-16T03:38:37.310Z,83.23
2023-05-16T03:41:03.858Z,83.26
2023-05-16T03:43:30.384Z,83.38
2023-05-16T03:45:57.153Z,83.33
2023-05-16T03:48:23.939Z,83.39
2023-05-16T03:50:51.458Z,83.44
2023-05-16T03:53:18.110Z,83.41
2023-05-16T03:55:45.836Z,83.30
2023-05-16T03:58:13.352Z,83.42
2023-05-16T04:00:40.078Z,83.10
2023-05-16T04:03:09.792Z,83.40
2023-05-16T04:05:38.583Z,83.46
2023-05-16T04:08:05.412Z,83.42
2023-05-16T04:10:32.031Z,83.19
2023-05-16T04:12:58.513Z,83.44
2023-05-16T04:15:25.520Z,83.55
2023-05-16T04:17:52.226Z,83.31
2023-05-16T04:20:19.668Z,83.31
2023-05-16T04:22:47.563Z,83.46
2023-05-16T04:25:14.445Z,83.46
2023-05-16T04:27:41.022Z,83.28
2023-05-16T04:30:08.443Z,83.34
2023-05-16T04:32:36.755Z,83.37
2023-05-16T04:35:03.717Z,83.58
2023-05-16T04:37:30.396Z,83.41
2023-05-16T04:39:57.017Z,83.52
2023-05-16T04:42:26.053Z,83.30
2023-05-16T04:44:52.879Z,83.40
2023-05-16T04:47:19.637Z,83.24
2023-05-16T04:49:48.355Z,83.30
2023-05-16T04:52:14.952Z,83.42
2023-05-16T04:54:41.779Z,83.33
2023-05-16T04:57:08.742Z,83.58
2023-05-16T04:59:36.660Z,83.43
2023-05-16T05:02:04.342Z,83.37
2023-05-16T05:04:31.072Z,83.31
2023-05-16T05:06:57.991Z,83.53
2023-05-16T05:09:24.609Z,83.36
2023-05-16T05:11:51.258Z,83.29
2023-05-16T05:14:18.673Z,83.21
2023-05-16T05:16:45.719Z,83.28
2023-05-16T05:19:12.232Z,83.35
2023-05-16T05:21:38.851Z,83.32
2023-05-16T05:24:05.741Z,83.32
2023-05-16T05:26:32.382Z,83.25
2023-05-16T05:29:05.174Z,83.23
2023-05-16T05:31:33.849Z,83.34
2023-05-16T05:34:00.956Z,83.49
2023-05-16T05:36:27.612Z,83.65
2023-05-16T05:38:54.313Z,83.52
2023-05-16T05:41:22.410Z,83.47
2023-05-16T05:43:49.463Z,83.85
2023-05-16T05:46:17.341Z,83.61
2023-05-16T05:48:45.122Z,83.54
2023-05-16T05:51:13.978Z,83.75
2023-05-16T05:53:41.357Z,83.63
2023-05-16T05:56:07.846Z,83.52
2023-05-16T05:58:34.437Z,83.59
2023-05-16T06:01:00.990Z,83.56
2023-05-16T06:03:27.622Z,83.41
2023-05-16T06:05:54.190Z,83.45
2023-05-16T06:08:20.722Z,83.26
2023-05-16T06:10:48.229Z,83.25
2023-05-16T06:13:14.744Z,83.10
2023-05-16T06:15:41.274Z,83.05
2023-05-16T06:18:07.867Z,83.10
2023-05-16T06:20:34.414Z,83.12
2023-05-16T06:23:01.397Z,82.98
2023-05-16T06:25:28.208Z,82.80
2023-05-16T06:27:54.958Z,82.75
2023-05-16T06:30:21.484Z,82.51
2023-05-16T06:32:48.159Z,82.87
2023-05-16T06:35:14.826Z,82.72
2023-05-16T06:37:43.046Z,82.80
2023-05-16T06:40:10.587Z,82.68
2023-05-16T06:42:37.546Z,82.56
2023-05-16T06:45:04.626Z,82.61
2023-05-16T06:47:31.262Z,82.50
2023-05-16T06:49:58.003Z,82.31
2023-05-16T06:52:25.150Z,82.43
2023-05-16T06:54:52.161Z,82.31
2023-05-16T06:57:18.726Z,82.16
2023-05-16T06:59:47.013Z,82.33
2023-05-16T07:02:13.753Z,82.33
2023-05-16T07:04:40.764Z,82.44
2023-05-16T07:07:11.707Z,82.14
2023-05-16T07:09:38.318Z,82.37
2023-05-16T07:12:06.028Z,82.29
2023-05-16T07:14:32.585Z,82.28
2023-05-16T07:16:59.273Z,82.19
2023-05-16T07:19:26.277Z,81.92
2023-05-16T07:21:55.957Z,82.23
2023-05-16T07:24:22.522Z,81.92
2023-05-16T07:26:49.111Z,81.97
2023-05-16T07:29:15.827Z,82.08
2023-05-16T07:31:42.536Z,81.56
2023-05-16T07:34:10.355Z,81.71
2023-05-16T07:36:42.946Z,81.66
2023-05-16T07:39:12.627Z,81.77
2023-05-16T07:41:51.268Z,81.64
2023-05-16T07:44:20.707Z,82.03
2023-05-16T07:46:50.855Z,82.02
2023-05-16T07:49:23.447Z,82.01
2023-05-16T07:51:52.922Z,81.81
2023-05-16T07:54:19.723Z,81.90
2023-05-16T07:56:46.301Z,81.67
2023-05-16T07:59:15.880Z,81.67
2023-05-16T08:01:54.832Z,81.75
2023-05-16T08:04:21.881Z,81.62
2023-05-16T08:06:48.465Z,81.50
2023-05-16T08:09:14.939Z,81.70
2023-05-16T08:11:41.561Z,81.98
2023-05-16T08:14:08.313Z,81.48
2023-05-16T08:16:34.911Z,81.67
2023-05-16T08:19:01.709Z,81.47
2023-05-16T08:21:32.006Z,81.42
2023-05-16T08:24:01.657Z,81.16
2023-05-16T08:26:28.523Z,81.31
2023-05-16T08:29:01.942Z,81.36
2023-05-16T08:31:28.520Z,81.47
2023-05-16T08:33:58.303Z,81.46
2023-05-16T08:36:34.869Z,81.67
2023-05-16T08:39:01.956Z,81.63
2023-05-16T08:41:28.746Z,81.44
2023-05-16T08:43:55.497Z,81.73
2023-05-16T08:46:24.017Z,81.81
2023-05-16T08:48:54.352Z,81.83
2023-05-16T08:51:22.753Z,81.72
2023-05-16T08:54:16.429Z,81.71
2023-05-16T08:56:44.175Z,81.57
2023-05-16T08:59:12.604Z,81.52
2023-05-16T09:01:41.906Z,81.33
2023-05-16T09:04:13.155Z,81.50
2023-05-16T09:06:39.736Z,81.64
2023-05-16T09:09:08.229Z,81.67
2023-05-16T09:11:36.925Z,81.53
2023-05-16T09:14:04.507Z,81.59
2023-05-16T09:16:31.534Z,81.51
2023-05-16T09:19:02.039Z,81.74
2023-05-16T09:21:29.819Z,81.65
2023-05-16T09:23:56.640Z,81.65
2023-05-16T09:26:23.272Z,81.68
2023-05-16T09:28:54.091Z,81.54
2023-05-16T09:31:26.949Z,81.67
2023-05-16T09:33:56.498Z,81.62
2023-05-16T09:36:23.256Z,81.56
2023-05-16T09:38:53.070Z,81.19
2023-05-16T09:41:23.185Z,81.51
2023-05-16T09:43:49.966Z,81.41
2023-05-16T09:46:17.568Z,81.01
2023-05-16T09:48:52.567Z,80.82
2023-05-16T09:51:23.260Z,80.50
2023-05-16T09:53:52.568Z,80.12
2023-05-16T09:56:21.915Z,79.99
2023-05-16T09:58:52.151Z,79.79
2023-05-16T10:01:19.899Z,79.93
2023-05-16T10:03:47.645Z,79.73
2023-05-16T10:06:18.467Z,79.78
2023-05-16T10:08:46.673Z,79.96
2023-05-16T10:11:14.098Z,80.37
2023-05-16T10:13:50.344Z,80.51
2023-05-16T10:16:18.627Z,80.52
2023-05-16T10:18:48.573Z,80.69
2023-05-16T10:21:46.164Z,80.21
2023-05-16T10:24:18.103Z,79.66
2023-05-16T10:26:46.661Z,79.19
2023-05-16T10:29:19.156Z,79.11
2023-05-16T10:31:47.368Z,79.06
2023-05-16T10:34:14.226Z,79.10
2023-05-16T10:36:41.252Z,79.19
2023-05-16T10:39:08.753Z,79.12
2023-05-16T10:41:35.726Z,78.81
2023-05-16T10:44:05.359Z,79.12
2023-05-16T10:46:32.192Z,79.18
2023-05-16T10:49:23.855Z,79.27
2023-05-16T10:52:04.288Z,79.68
2023-05-16T10:54:39.416Z,79.56
2023-05-16T10:57:17.848Z,79.74
2023-05-16T10:59:49.494Z,80.04
2023-05-16T11:02:25.398Z,80.11
2023-05-16T11:04:54.394Z,80.34
2023-05-16T11:07:54.368Z,80.33
2023-05-16T11:10:25.651Z,80.22
2023-05-16T11:12:53.788Z,80.39
2023-05-16T11:15:28.805Z,80.52
2023-05-16T11:18:08.896Z,80.78
2023-05-16T11:20:43.337Z,80.70
2023-05-16T11:23:19.157Z,80.56
2023-05-16T11:25:47.115Z,80.77
2023-05-16T11:28:15.135Z,80.79
2023-05-16T11:30:49.791Z,81.12
2023-05-16T11:33:17.260Z,81.15
2023-05-16T11:35:44.246Z,81.36
2023-05-16T11:38:16.487Z,81.27
2023-05-16T11:40:44.604Z,81.41
2023-05-16T11:43:19.349Z,81.33
2023-05-16T11:45:50.871Z,81.38
2023-05-16T11:48:28.575Z,81.49
2023-05-16T11:50:59.599Z,81.39
2023-05-16T11:53:28.274Z,81.44
2023-05-16T11:55:56.020Z,81.48
2023-05-16T11:58:23.248Z,81.59
2023-05-16T12:00:54.121Z,81.46
2023-05-16T12:03:21.715Z,81.40
2023-05-16T12:05:57.039Z,81.35
2023-05-16T12:08:24.776Z,81.40
2023-05-16T12:10:58.214Z,81.60
2023-05-16T12:13:25.508Z,81.58
2023-05-16T12:15:52.862Z,81.42
2023-05-16T12:18:21.368Z,81.39
2023-05-16T12:20:48.246Z,81.03
2023-05-16T12:23:16.976Z,81.05
2023-05-16T12:25:49.329Z,81.02
2023-05-16T12:28:16.600Z,80.66
2023-05-16T12:30:48.453Z,80.30
2023-05-16T12:33:17.092Z,80.36
2023-05-16T12:35:48.214Z,80.31
2023-05-16T12:38:17.361Z,80.29
2023-05-16T12:40:44.972Z,80.24
2023-05-16T12:43:21.868Z,80.25
2023-05-16T12:45:56.675Z,80.41
2023-05-16T12:48:24.564Z,80.22
2023-05-16T12:50:51.125Z,80.30
2023-05-16T12:53:19.120Z,80.20
2023-05-16T12:55:45.735Z,80.03
2023-05-16T12:58:15.167Z,79.64
2023-05-16T13:00:41.906Z,79.27
2023-05-16T13:03:08.841Z,79.04
2023-05-16T13:05:36.476Z,78.97
2023-05-16T13:08:03.653Z,79.30
2023-05-16T13:10:30.344Z,79.45
2023-05-16T13:13:01.062Z,79.49
2023-05-16T13:15:28.245Z,79.89
2023-05-16T13:17:55.376Z,79.64
2023-05-16T13:20:22.324Z,79.74
2023-05-16T13:22:49.248Z,79.79
2023-05-16T13:25:16.104Z,79.68
2023-05-16T13:27:42.832Z,79.44
2023-05-16T13:30:09.786Z,79.60
2023-05-16T13:32:36.811Z,79.45
2023-05-16T13:35:06.246Z,79.38
2023-05-16T13:37:36.074Z,79.33
2023-05-16T13:40:03.202Z,79.19
2023-05-16T13:42:29.789Z,79.25
2023-05-16T13:44:56.396Z,79.22
2023-05-16T13:47:22.980Z,79.57
2023-05-16T13:49:49.911Z,79.39
2023-05-16T13:52:16.490Z,79.32
2023-05-16T13:54:42.992Z,79.14
2023-05-16T13:57:09.580Z,79.12
2023-05-16T14:02:06.802Z,79.21
2023-05-16T14:04:33.412Z,79.17
2023-05-16T14:06:59.934Z,79.48
2023-05-16T14:09:26.481Z,79.33
2023-05-16T14:11:54.167Z,79.23
2023-05-16T14:14:21.317Z,79.08
2023-05-16T14:16:47.931Z,78.65
2023-05-16T14:19:17.292Z,78.64
2023-05-16T14:21:48.589Z,78.63
2023-05-16T14:24:15.116Z,78.64
2023-05-16T14:26:42.055Z,78.49
2023-05-16T14:29:08.578Z,78.43
2023-05-16T14:31:36.667Z,78.40
2023-05-16T14:34:03.422Z,78.34
2023-05-16T14:36:30.021Z,78.20
2023-05-16T14:38:56.594Z,78.24
2023-05-16T14:41:25.740Z,78.06
2023-05-16T14:43:52.558Z,77.59
2023-05-16T14:46:21.591Z,77.63
2023-05-16T14:48:50.274Z,77.41
2023-05-16T14:51:16.947Z,77.13
2023-05-16T14:53:45.996Z,77.14
2023-05-16T14:56:14.025Z,77.14
2023-05-16T14:58:49.988Z,77.04
2023-05-16T15:01:16.794Z,76.98
2023-05-16T15:03:54.744Z,77.17
2023-05-16T15:06:23.294Z,77.13
2023-05-16T15:08:50.227Z,76.88
2023-05-16T15:11:16.831Z,76.89
2023-05-16T15:13:43.600Z,76.79
2023-05-16T15:16:10.270Z,77.08
2023-05-16T15:21:20.660Z,76.34
2023-05-16T15:23:47.457Z,76.26
2023-05-16T15:26:13.998Z,76.13
2023-05-16T15:28:41.038Z,75.95
2023-05-16T15:31:14.806Z,75.85
2023-05-16T15:33:41.562Z,75.51
2023-05-16T15:36:08.548Z,75.29
2023-05-16T15:38:36.801Z,74.94
2023-05-16T15:43:40.060Z,74.66
2023-05-16T15:46:24.288Z,74.83
2023-05-16T15:48:50.918Z,75.03
2023-05-16T15:51:17.479Z,75.04
2023-05-16T15:53:44.949Z,74.86
2023-05-16T15:56:14.656Z,75.09
2023-05-16T15:58:41.122Z,74.91
2023-05-16T16:01:07.904Z,74.62
2023-05-16T16:03:34.559Z,74.64
2023-05-16T16:06:01.193Z,74.63
2023-05-16T16:08:28.020Z,74.67
2023-05-16T16:10:54.878Z,74.42
2023-05-16T16:13:21.761Z,74.48
2023-05-16T16:15:48.445Z,74.63
2023-05-16T16:18:22.818Z,74.55
2023-05-16T16:20:49.814Z,74.40
2023-05-16T16:23:16.397Z,74.25
2023-05-16T16:25:43.095Z,74.03
2023-05-16T16:28:09.787Z,73.98
2023-05-16T16:30:38.613Z,73.72
2023-05-16T16:33:05.301Z,73.45
2023-05-16T16:35:32.082Z,73.13
2023-05-16T16:38:06.866Z,72.90
2023-05-16T16:40:34.347Z,72.57
2023-05-16T16:43:01.515Z,72.42
2023-05-16T16:45:28.474Z,72.28
2023-05-16T16:47:55.612Z,72.05
2023-05-16T16:50:22.307Z,71.90
2023-05-16T16:52:50.725Z,71.76
2023-05-16T16:55:17.573Z,71.67
2023-05-16T16:57:44.206Z,71.28
2023-05-16T17:00:11.639Z,71.28
2023-05-16T17:02:38.594Z,71.06
2023-05-16T17:05:06.515Z,71.09
2023-05-16T17:07:33.277Z,70.96
2023-05-16T17:10:01.027Z,71.00
2023-05-16T17:12:28.950Z,70.83
2023-05-16T17:14:58.335Z,70.92
2023-05-16T17:17:26.009Z,70.68
2023-05-16T17:19:53.185Z,70.63
2023-05-16T17:22:21.445Z,70.29
2023-05-16T17:24:48.197Z,70.26
2023-05-16T17:27:14.932Z,70.07
2023-05-16T17:29:44.510Z,69.90
2023-05-16T17:32:13.341Z,69.58
2023-05-16T17:34:40.013Z,69.30
2023-05-16T17:37:10.585Z,69.16
2023-05-16T17:39:37.270Z,68.91
2023-05-16T17:42:10.171Z,68.55
2023-05-16T17:45:09.170Z,68.10
2023-05-16T17:47:35.825Z,67.54
2023-05-16T17:50:08.795Z,67.73
2023-05-16T17:52:39.770Z,67.46
2023-05-16T17:55:13.855Z,67.31
2023-05-16T17:57:40.512Z,67.10
2023-05-16T18:00:07.937Z,67.23
2023-05-16T18:02:38.566Z,67.08
2023-05-16T18:05:11.251Z,67.00
2023-05-16T18:07:38.564Z,66.92
2023-05-16T18:10:06.788Z,66.84
2023-05-16T18:12:33.466Z,66.66
2023-05-16T18:15:12.515Z,66.66
2023-05-16T18:17:39.448Z,66.56
2023-05-16T18:20:10.781Z,66.61
2023-05-16T18:22:38.434Z,66.57
2023-05-16T18:25:18.578Z,66.33
2023-05-16T18:27:45.186Z,66.28
2023-05-16T18:30:13.262Z,65.99
2023-05-16T18:35:28.891Z,65.69
2023-05-16T18:37:58.155Z,65.81
2023-05-16T18:40:26.030Z,65.64
2023-05-16T18:42:52.922Z,65.59
2023-05-16T18:45:19.854Z,65.54
2023-05-16T18:47:46.801Z,65.65
2023-05-16T18:50:13.344Z,65.38
2023-05-16T18:52:40.656Z,65.46
2023-05-16T18:55:07.900Z,65.42
2023-05-16T18:57:34.864Z,65.44
2023-05-16T19:00:01.328Z,65.25
2023-05-16T19:02:40.930Z,65.11
2023-05-16T19:05:09.557Z,65.00
2023-05-16T19:07:36.346Z,65.21
2023-05-16T19:10:03.814Z,65.04
2023-05-16T19:12:32.156Z,64.93
2023-05-16T19:14:58.665Z,64.92
2023-05-16T19:17:25.332Z,64.53
2023-05-16T19:19:52.142Z,64.67
2023-05-16T19:22:18.866Z,64.67
2023-05-16T19:24:45.379Z,64.58
2023-05-16T19:27:12.135Z,64.75
2023-05-16T19:29:38.607Z,64.83
2023-05-16T19:32:05.603Z,64.90
2023-05-16T19:34:33.147Z,65.06
2023-05-16T19:37:02.143Z,64.82
2023-05-16T19:39:28.740Z,64.87
2023-05-16T19:41:56.914Z,64.69
2023-05-16T19:44:23.634Z,65.02
2023-05-16T19:46:50.167Z,64.95
2023-05-16T19:49:19.549Z,64.88
2023-05-16T19:51:46.920Z,64.93
2023-05-16T19:54:13.500Z,64.92
2023-05-16T19:56:40.108Z,64.90
2023-05-16T19:59:06.582Z,65.04
2023-05-16T20:01:33.188Z,64.98
2023-05-16T20:04:00.590Z,65.07
2023-05-16T20:06:27.165Z,64.88
2023-05-16T20:08:53.626Z,64.81
2023-05-16T20:11:20.303Z,64.87
2023-05-16T20:13:46.791Z,64.96
2023-05-16T20:16:13.511Z,64.73
2023-05-16T20:18:40.074Z,64.77
2023-05-16T20:21:06.626Z,64.69
2023-05-16T20:23:35.013Z,64.64
2023-05-16T20:26:01.721Z,64.56
2023-05-16T20:28:28.170Z,64.49
2023-05-16T20:30:54.647Z,64.54
2023-05-16T20:33:21.209Z,64.56
2023-05-16T20:35:47.921Z,64.54
2023-05-16T20:38:14.697Z,64.52
2023-05-16T20:40:41.862Z,64.58
2023-05-16T20:43:08.508Z,64.63
2023-05-16T20:45:34.949Z,64.40
2023-05-16T20:48:01.581Z,64.61
2023-05-16T20:50:28.102Z,64.40
2023-05-16T20:52:54.591Z,64.64
2023-05-16T20:55:21.280Z,64.42
2023-05-16T20:57:47.753Z,64.55
2023-05-16T21:00:14.792Z,64.47
2023-05-16T21:02:41.382Z,64.47
2023-05-16T21:05:23.077Z,64.42
2023-05-16T21:07:50.427Z,64.57
2023-05-16T21:10:17.049Z,64.47
2023-05-16T21:12:43.437Z,64.58
2023-05-16T21:15:10.145Z,64.67
2023-05-16T21:17:36.687Z,64.81
2023-05-16T21:20:05.069Z,64.78
2023-05-16T21:22:31.682Z,64.78
2023-05-16T21:24:58.153Z,64.75
2023-05-16T21:27:24.605Z,64.53
2023-05-16T21:29:50.991Z,64.61
2023-05-16T21:32:17.432Z,64.56
2023-05-16T21:34:43.937Z,64.60
2023-05-16T21:37:11.707Z,64.68
2023-05-16T21:39:38.242Z,64.74
2023-05-16T21:42:05.048Z,64.75
2023-05-16T21:44:31.621Z,64.60
2023-05-16T21:46:58.244Z,64.59
2023-05-16T21:49:24.819Z,64.78
2023-05-16T21:51:51.288Z,64.79
2023-05-16T21:54:17.748Z,64.70
2023-05-16T21:56:45.669Z,64.85
2023-05-16T21:59:13.838Z,64.95
2023-05-16T22:01:40.359Z,64.96
2023-05-16T22:04:06.932Z,65.05
2023-05-16T22:06:33.492Z,65.02
2023-05-16T22:09:01.501Z,65.02
2023-05-16T22:11:28.060Z,65.23
2023-05-16T22:13:54.586Z,65.17
2023-05-16T22:16:21.058Z,65.38
2023-05-16T22:18:47.907Z,65.33
2023-05-16T22:21:16.201Z,65.36
2023-05-16T22:23:42.735Z,65.30
2023-05-16T22:26:09.339Z,65.29
2023-05-16T22:28:35.812Z,65.41
2023-05-16T22:31:02.239Z,65.35
2023-05-16T22:33:28.789Z,65.43
2023-05-16T22:35:55.308Z,65.50
2023-05-16T22:38:21.821Z,65.53
2023-05-16T22:40:48.283Z,65.61
2023-05-16T22:43:14.945Z,65.67
2023-05-16T22:45:41.624Z,65.74
2023-05-16T22:48:08.244Z,65.63
2023-05-16T22:50:34.895Z,65.94
2023-05-16T22:53:01.356Z,65.96
2023-05-16T22:55:28.217Z,66.00
2023-05-16T22:57:57.137Z,66.13
2023-05-16T23:00:23.865Z,66.12
2023-05-16T23:02:50.434Z,66.27
2023-05-16T23:05:17.041Z,66.35
2023-05-16T23:07:43.509Z,66.26
2023-05-16T23:10:10.157Z,66.41
2023-05-16T23:12:37.110Z,66.52
2023-05-16T23:15:06.444Z,66.43
2023-05-16T23:17:32.912Z,66.76
2023-05-16T23:19:59.525Z,66.60
2023-05-16T23:22:26.152Z,66.83
2023-05-16T23:24:52.731Z,66.74
2023-05-16T23:27:19.191Z,66.75
2023-05-16T23:29:45.600Z,66.76
2023-05-16T23:32:12.010Z,66.97
2023-05-16T23:34:38.481Z,66.93
2023-05-16T23:37:05.174Z,67.09
2023-05-16T23:39:31.656Z,67.09
2023-05-16T23:42:00.584Z,67.21
2023-05-16T23:44:27.302Z,67.04
2023-05-16T23:46:53.764Z,67.40
2023-05-16T23:49:20.263Z,67.45
2023-05-16T23:51:57.522Z,67.61
2023-05-16T23:54:27.824Z,67.63
2023-05-16T23:56:54.269Z,67.86
2023-05-16T23:59:20.742Z,67.78
